createdAt,value
2019-03-26T00:00:19.477Z,4.20
2019-03-26T00:01:19.325Z,4.19
2019-03-26T00:02:19.308Z,4.16
2019-03-26T00:03:19.302Z,4.14
2019-03-26T00:04:19.287Z,4.20
2019-03-26T00:05:19.271Z,4.19
2019-03-26T00:06:19.381Z,4.12
2019-03-26T00:07:19.268Z,4.19
2019-03-26T00:08:19.563Z,4.24
2019-03-26T00:09:19.233Z,4.14
2019-03-26T00:10:19.276Z,4.08
2019-03-26T00:11:19.207Z,4.13
2019-03-26T00:12:19.582Z,4.12
2019-03-26T00:13:19.192Z,4.14
2019-03-26T00:14:19.189Z,4.08
2019-03-26T00:15:19.237Z,4.13
2019-03-26T00:16:23.852Z,4.01
2019-03-26T00:17:19.146Z,3.96
2019-03-26T00:18:19.129Z,4.04
2019-03-26T00:19:19.126Z,4.02
2019-03-26T00:20:19.143Z,3.95
2019-03-26T00:21:19.101Z,3.96
2019-03-26T00:22:19.438Z,3.92
2019-03-26T00:23:19.082Z,3.98
2019-03-26T00:24:19.072Z,3.98
2019-03-26T00:25:19.077Z,3.94
2019-03-26T00:26:19.060Z,3.95
2019-03-26T00:27:19.036Z,3.92
2019-03-26T00:28:19.147Z,3.98
2019-03-26T00:29:19.123Z,4.01
2019-03-26T00:30:19.007Z,4.01
2019-03-26T00:31:19.016Z,3.91
2019-03-26T00:32:23.604Z,3.94
2019-03-26T00:33:18.989Z,3.98
2019-03-26T00:34:19.808Z,3.98
2019-03-26T00:35:19.037Z,3.96
2019-03-26T00:36:18.945Z,3.95
2019-03-26T00:37:18.929Z,3.86
2019-03-26T00:38:18.922Z,3.99
2019-03-26T00:39:19.108Z,3.87
2019-03-26T00:40:18.901Z,3.88
2019-03-26T00:41:18.911Z,3.88
2019-03-26T00:42:18.884Z,3.80
2019-03-26T00:43:19.055Z,3.86
2019-03-26T00:44:18.892Z,3.78
2019-03-26T00:45:19.532Z,3.83
2019-03-26T00:46:18.965Z,3.74
2019-03-26T00:47:18.971Z,3.77
2019-03-26T00:48:18.951Z,3.68
2019-03-26T00:49:19.011Z,3.77
2019-03-26T00:50:19.389Z,3.74
2019-03-26T00:51:18.958Z,3.70
2019-03-26T00:52:18.766Z,3.74
2019-03-26T00:53:19.600Z,3.73
2019-03-26T00:54:18.753Z,3.73
2019-03-26T00:55:22.727Z,3.74
2019-03-26T00:56:18.914Z,3.74
2019-03-26T00:57:18.721Z,3.69
2019-03-26T00:58:18.709Z,3.65
2019-03-26T00:59:18.694Z,3.68
2019-03-26T01:00:18.689Z,3.60
2019-03-26T01:01:19.008Z,3.65
2019-03-26T01:02:19.003Z,3.62
2019-03-26T01:03:18.756Z,3.60
2019-03-26T01:04:31.835Z,3.62
2019-03-26T01:05:19.644Z,3.59
2019-03-26T01:06:18.637Z,3.56
2019-03-26T01:07:18.619Z,3.53
2019-03-26T01:08:18.859Z,3.62
2019-03-26T01:09:18.586Z,3.59
2019-03-26T01:10:18.573Z,3.59
2019-03-26T01:11:18.563Z,3.60
2019-03-26T01:12:18.563Z,3.59
2019-03-26T01:13:18.557Z,3.55
2019-03-26T01:14:19.132Z,3.47
2019-03-26T01:15:18.592Z,3.47
2019-03-26T01:16:18.512Z,3.47
2019-03-26T01:17:18.505Z,3.48
2019-03-26T01:18:19.058Z,3.58
2019-03-26T01:19:18.701Z,3.58
2019-03-26T01:20:18.502Z,3.51
2019-03-26T01:21:18.462Z,3.50
2019-03-26T01:22:18.498Z,3.53
2019-03-26T01:23:33.208Z,3.50
2019-03-26T01:24:18.788Z,3.51
2019-03-26T01:25:18.439Z,3.47
2019-03-26T01:26:18.550Z,3.45
2019-03-26T01:27:18.393Z,3.45
2019-03-26T01:28:18.389Z,3.40
2019-03-26T01:29:18.398Z,3.48
2019-03-26T01:30:18.371Z,3.51
2019-03-26T01:31:18.360Z,3.45
2019-03-26T01:32:18.428Z,3.45
2019-03-26T01:33:18.327Z,3.44
2019-03-26T01:34:18.326Z,3.41
2019-03-26T01:35:18.367Z,3.44
2019-03-26T01:36:18.300Z,3.44
2019-03-26T01:37:18.467Z,3.47
2019-03-26T01:38:18.298Z,3.41
2019-03-26T01:39:18.273Z,3.45
2019-03-26T01:40:18.263Z,3.40
2019-03-26T01:41:18.249Z,3.42
2019-03-26T01:42:18.278Z,3.44
2019-03-26T01:43:18.367Z,3.44
2019-03-26T01:44:18.549Z,3.48
2019-03-26T01:45:18.201Z,3.34
2019-03-26T01:46:18.295Z,3.32
2019-03-26T01:47:18.186Z,3.29
2019-03-26T01:48:18.360Z,3.44
2019-03-26T01:49:18.168Z,3.34
2019-03-26T01:50:18.402Z,3.34
2019-03-26T01:51:18.130Z,3.40
2019-03-26T01:52:18.241Z,3.36
2019-03-26T01:53:20.263Z,3.37
2019-03-26T01:54:18.116Z,3.45
2019-03-26T01:55:18.103Z,3.36
2019-03-26T01:56:18.215Z,3.41
2019-03-26T01:57:18.073Z,3.41
2019-03-26T01:58:18.071Z,3.44
2019-03-26T01:59:18.076Z,3.45
2019-03-26T02:00:18.153Z,3.41
2019-03-26T02:01:18.394Z,3.44
2019-03-26T02:02:18.308Z,3.36
2019-03-26T02:03:18.010Z,3.44
2019-03-26T02:04:20.213Z,3.36
2019-03-26T02:05:18.481Z,3.40
2019-03-26T02:06:18.373Z,3.44
2019-03-26T02:07:18.031Z,3.44
2019-03-26T02:08:17.957Z,3.50
2019-03-26T02:09:18.141Z,3.47
2019-03-26T02:10:17.937Z,3.45
2019-03-26T02:11:18.632Z,3.53
2019-03-26T02:12:17.914Z,3.48
2019-03-26T02:13:17.899Z,3.47
2019-03-26T02:14:17.930Z,3.51
2019-03-26T02:15:18.030Z,3.47
2019-03-26T02:16:18.224Z,3.48
2019-03-26T02:17:17.883Z,3.48
2019-03-26T02:18:17.883Z,3.45
2019-03-26T02:19:17.861Z,3.50
2019-03-26T02:20:17.861Z,3.53
2019-03-26T02:21:17.906Z,3.45
2019-03-26T02:22:18.299Z,3.50
2019-03-26T02:23:17.880Z,3.48
2019-03-26T02:24:18.049Z,3.41
2019-03-26T02:25:18.167Z,3.50
2019-03-26T02:26:18.081Z,3.47
2019-03-26T02:27:17.747Z,3.44
2019-03-26T02:28:18.126Z,3.59
2019-03-26T02:29:18.123Z,3.42
2019-03-26T02:30:17.854Z,3.58
2019-03-26T02:31:17.714Z,3.42
2019-03-26T02:32:17.690Z,3.45
2019-03-26T02:33:17.685Z,3.47
2019-03-26T02:34:18.294Z,3.47
2019-03-26T02:35:19.241Z,3.47
2019-03-26T02:36:17.658Z,3.44
2019-03-26T02:37:17.640Z,3.36
2019-03-26T02:38:17.632Z,3.36
2019-03-26T02:39:18.894Z,3.34
2019-03-26T02:40:17.608Z,3.32
2019-03-26T02:41:17.639Z,3.25
2019-03-26T02:42:17.576Z,3.26
2019-03-26T02:43:17.575Z,3.29
2019-03-26T02:44:18.017Z,3.31
2019-03-26T02:45:17.592Z,3.26
2019-03-26T02:46:18.123Z,3.31
2019-03-26T02:47:17.540Z,3.36
2019-03-26T02:48:17.529Z,3.31
2019-03-26T02:49:17.752Z,3.40
2019-03-26T02:50:17.505Z,3.32
2019-03-26T02:51:17.483Z,3.41
2019-03-26T02:52:17.484Z,3.34
2019-03-26T02:53:17.461Z,3.32
2019-03-26T02:54:17.460Z,3.28
2019-03-26T02:55:17.668Z,3.29
2019-03-26T02:56:17.444Z,3.31
2019-03-26T02:57:17.422Z,3.31
2019-03-26T02:58:17.403Z,3.37
2019-03-26T02:59:17.400Z,3.32
2019-03-26T03:00:17.399Z,3.29
2019-03-26T03:01:19.201Z,3.34
2019-03-26T03:02:17.723Z,3.32
2019-03-26T03:03:17.360Z,3.40
2019-03-26T03:04:17.482Z,3.31
2019-03-26T03:05:33.835Z,3.47
2019-03-26T03:06:18.332Z,3.47
2019-03-26T03:07:17.500Z,3.50
2019-03-26T03:08:17.313Z,3.48
2019-03-26T03:09:17.488Z,3.44
2019-03-26T03:10:17.281Z,3.41
2019-03-26T03:11:18.749Z,3.42
2019-03-26T03:12:17.261Z,3.32
2019-03-26T03:13:17.277Z,3.41
2019-03-26T03:14:17.462Z,3.31
2019-03-26T03:15:19.315Z,3.36
2019-03-26T03:16:17.539Z,3.34
2019-03-26T03:17:17.217Z,3.32
2019-03-26T03:18:17.202Z,3.31
2019-03-26T03:19:18.042Z,3.26
2019-03-26T03:20:19.314Z,3.28
2019-03-26T03:21:17.155Z,3.28
2019-03-26T03:22:17.146Z,3.32
2019-03-26T03:23:17.140Z,3.29
2019-03-26T03:24:17.137Z,3.31
2019-03-26T03:25:17.488Z,3.28
2019-03-26T03:26:17.112Z,3.25
2019-03-26T03:27:17.119Z,3.22
2019-03-26T03:28:17.080Z,3.21
2019-03-26T03:29:17.078Z,3.25
2019-03-26T03:30:17.378Z,3.21
2019-03-26T03:31:17.068Z,3.37
2019-03-26T03:32:17.106Z,3.21
2019-03-26T03:33:17.042Z,3.23
2019-03-26T03:34:17.063Z,3.26
2019-03-26T03:35:17.047Z,3.25
2019-03-26T03:36:20.471Z,3.21
2019-03-26T03:37:16.998Z,3.23
2019-03-26T03:38:17.118Z,3.28
2019-03-26T03:39:16.965Z,3.29
2019-03-26T03:40:16.959Z,3.31
2019-03-26T03:41:16.957Z,3.31
2019-03-26T03:42:17.090Z,3.37
2019-03-26T03:43:16.947Z,3.36
2019-03-26T03:44:16.920Z,3.42
2019-03-26T03:45:16.898Z,3.44
2019-03-26T03:46:16.959Z,3.41
2019-03-26T03:47:17.130Z,3.44
2019-03-26T03:48:16.875Z,3.42
2019-03-26T03:49:16.994Z,3.45
2019-03-26T03:50:16.853Z,3.41
2019-03-26T03:51:16.866Z,3.32
2019-03-26T03:52:17.005Z,3.36
2019-03-26T03:53:16.818Z,3.37
2019-03-26T03:54:17.003Z,3.32
2019-03-26T03:55:16.789Z,3.31
2019-03-26T03:56:16.783Z,3.34
2019-03-26T03:57:17.212Z,3.29
2019-03-26T03:58:16.765Z,3.31
2019-03-26T03:59:16.743Z,3.40
2019-03-26T04:00:16.921Z,3.42
2019-03-26T04:01:16.738Z,3.40
2019-03-26T04:02:16.715Z,3.59
2019-03-26T04:03:16.898Z,3.58
2019-03-26T04:04:17.040Z,3.56
2019-03-26T04:05:16.905Z,3.62
2019-03-26T04:06:16.670Z,3.60
2019-03-26T04:07:16.666Z,3.55
2019-03-26T04:08:16.705Z,3.51
2019-03-26T04:09:16.674Z,3.51
2019-03-26T04:10:16.625Z,3.47
2019-03-26T04:11:16.992Z,3.51
2019-03-26T04:12:16.613Z,3.41
2019-03-26T04:13:16.619Z,3.41
2019-03-26T04:14:16.624Z,3.45
2019-03-26T04:15:16.585Z,3.42
2019-03-26T04:16:16.574Z,3.41
2019-03-26T04:17:16.766Z,3.41
2019-03-26T04:18:16.545Z,3.40
2019-03-26T04:19:16.540Z,3.34
2019-03-26T04:20:16.529Z,3.34
2019-03-26T04:21:16.960Z,3.36
2019-03-26T04:22:16.492Z,3.34
2019-03-26T04:23:16.904Z,3.34
2019-03-26T04:24:16.480Z,3.31
2019-03-26T04:25:16.468Z,3.34
2019-03-26T04:26:16.653Z,3.32
2019-03-26T04:27:16.446Z,3.34
2019-03-26T04:28:16.436Z,3.29
2019-03-26T04:29:16.422Z,3.26
2019-03-26T04:30:16.504Z,3.31
2019-03-26T04:31:16.565Z,3.28
2019-03-26T04:32:17.406Z,3.32
2019-03-26T04:33:16.579Z,3.34
2019-03-26T04:34:16.369Z,3.32
2019-03-26T04:35:16.359Z,3.28
2019-03-26T04:36:25.347Z,3.34
2019-03-26T04:37:17.327Z,3.34
2019-03-26T04:38:16.414Z,3.23
2019-03-26T04:39:16.417Z,3.23
2019-03-26T04:40:16.319Z,3.31
2019-03-26T04:41:16.298Z,3.25
2019-03-26T04:42:16.290Z,3.23
2019-03-26T04:43:18.990Z,3.28
2019-03-26T04:44:16.498Z,3.23
2019-03-26T04:45:16.439Z,3.28
2019-03-26T04:46:16.256Z,3.25
2019-03-26T04:47:18.414Z,3.32
2019-03-26T04:48:16.216Z,3.29
2019-03-26T04:49:16.235Z,3.31
2019-03-26T04:50:16.196Z,3.31
2019-03-26T04:51:16.597Z,3.48
2019-03-26T04:52:16.184Z,3.44
2019-03-26T04:53:16.216Z,3.55
2019-03-26T04:54:44.046Z,3.59
2019-03-26T04:55:16.237Z,3.56
2019-03-26T04:56:16.337Z,3.65
2019-03-26T04:57:16.146Z,3.68
2019-03-26T04:58:16.115Z,3.76
2019-03-26T04:59:16.100Z,3.74
2019-03-26T05:00:16.157Z,3.78
2019-03-26T05:01:16.535Z,3.88
2019-03-26T05:02:16.069Z,3.83
2019-03-26T05:03:16.071Z,3.91
2019-03-26T05:04:16.082Z,3.98
2019-03-26T05:05:16.031Z,3.94
2019-03-26T05:06:16.215Z,4.04
2019-03-26T05:07:16.006Z,4.02
2019-03-26T05:08:17.146Z,4.14
2019-03-26T05:09:15.991Z,4.06
2019-03-26T05:10:16.124Z,4.12
2019-03-26T05:11:16.025Z,4.14
2019-03-26T05:12:16.420Z,4.13
2019-03-26T05:13:15.956Z,4.13
2019-03-26T05:14:16.158Z,4.13
2019-03-26T05:15:15.936Z,4.14
2019-03-26T05:16:15.924Z,4.16
2019-03-26T05:17:15.953Z,4.22
2019-03-26T05:18:17.370Z,4.26
2019-03-26T05:19:16.155Z,4.26
2019-03-26T05:20:15.975Z,4.28
2019-03-26T05:21:15.995Z,4.28
2019-03-26T05:22:24.129Z,4.20
2019-03-26T05:23:16.870Z,4.32
2019-03-26T05:24:15.919Z,4.31
2019-03-26T05:25:24.124Z,4.22
2019-03-26T05:26:15.920Z,4.19
2019-03-26T05:27:16.088Z,4.31
2019-03-26T05:28:15.901Z,4.17
2019-03-26T05:29:16.195Z,4.19
2019-03-26T05:30:15.876Z,4.20
2019-03-26T05:31:19.435Z,4.26
2019-03-26T05:32:15.748Z,4.37
2019-03-26T05:33:15.730Z,4.30
2019-03-26T05:34:15.724Z,4.24
2019-03-26T05:35:15.718Z,4.32
2019-03-26T05:36:16.238Z,4.24
2019-03-26T05:37:15.697Z,4.26
2019-03-26T05:38:15.695Z,4.37
2019-03-26T05:39:15.685Z,4.34
2019-03-26T05:40:15.645Z,4.30
2019-03-26T05:41:15.646Z,4.26
2019-03-26T05:42:16.219Z,4.24
2019-03-26T05:43:15.632Z,4.28
2019-03-26T05:44:15.682Z,4.17
2019-03-26T05:45:15.591Z,4.12
2019-03-26T05:46:15.583Z,4.16
2019-03-26T05:47:16.179Z,4.10
2019-03-26T05:48:15.613Z,4.08
2019-03-26T05:49:15.560Z,4.10
2019-03-26T05:50:15.573Z,4.22
2019-03-26T05:51:15.533Z,4.12
2019-03-26T05:52:15.525Z,4.10
2019-03-26T05:53:16.073Z,4.10
2019-03-26T05:54:15.503Z,4.17
2019-03-26T05:55:17.587Z,4.12
2019-03-26T05:56:15.488Z,4.22
2019-03-26T05:57:15.469Z,4.14
2019-03-26T05:58:15.463Z,4.14
2019-03-26T05:59:15.683Z,4.20
2019-03-26T06:00:15.462Z,4.22
2019-03-26T06:01:15.676Z,4.16
2019-03-26T06:02:18.019Z,4.19
2019-03-26T06:03:16.625Z,4.17
2019-03-26T06:04:15.402Z,4.13
2019-03-26T06:05:16.065Z,4.14
2019-03-26T06:06:16.743Z,4.14
2019-03-26T06:07:16.360Z,4.19
2019-03-26T06:08:15.348Z,4.20
2019-03-26T06:09:15.542Z,4.20
2019-03-26T06:10:15.337Z,4.16
2019-03-26T06:11:15.383Z,4.28
2019-03-26T06:12:21.906Z,4.26
2019-03-26T06:13:15.542Z,4.31
2019-03-26T06:14:15.514Z,4.38
2019-03-26T06:15:16.472Z,4.42
2019-03-26T06:16:15.483Z,4.50
2019-03-26T06:17:15.269Z,4.45
2019-03-26T06:18:15.374Z,4.45
2019-03-26T06:19:17.169Z,4.49
2019-03-26T06:20:15.249Z,4.44
2019-03-26T06:21:15.212Z,4.58
2019-03-26T06:22:25.203Z,4.55
2019-03-26T06:23:15.203Z,4.59
2019-03-26T06:24:15.215Z,4.73
2019-03-26T06:25:15.176Z,4.71
2019-03-26T06:26:15.171Z,4.80
2019-03-26T06:27:15.161Z,4.73
2019-03-26T06:28:15.693Z,4.82
2019-03-26T06:29:15.123Z,4.77
2019-03-26T06:30:15.134Z,4.80
2019-03-26T06:31:15.120Z,4.89
2019-03-26T06:32:15.105Z,5.18
2019-03-26T06:33:15.303Z,5.41
2019-03-26T06:34:18.323Z,5.68
2019-03-26T06:35:15.140Z,5.89
2019-03-26T06:36:15.045Z,6.67
2019-03-26T06:37:18.213Z,6.72
2019-03-26T06:38:15.930Z,6.33
2019-03-26T06:39:16.290Z,6.04
2019-03-26T06:40:17.467Z,5.99
2019-03-26T06:41:15.216Z,5.98
2019-03-26T06:42:14.988Z,6.08
2019-03-26T06:43:14.969Z,6.88
2019-03-26T06:44:14.967Z,7.39
2019-03-26T06:45:14.951Z,7.17
2019-03-26T06:46:15.152Z,6.84
2019-03-26T06:47:14.951Z,6.67
2019-03-26T06:48:14.920Z,6.57
2019-03-26T06:49:14.908Z,6.38
2019-03-26T06:50:14.998Z,6.28
2019-03-26T06:51:15.007Z,6.26
2019-03-26T06:52:14.884Z,6.08
2019-03-26T06:53:14.870Z,6.11
2019-03-26T06:54:14.929Z,5.99
2019-03-26T06:55:14.859Z,5.99
2019-03-26T06:56:15.178Z,5.93
2019-03-26T06:57:14.909Z,5.91
2019-03-26T06:58:15.171Z,5.90
2019-03-26T06:59:14.805Z,5.93
2019-03-26T07:00:14.801Z,5.98
2019-03-26T07:01:15.276Z,6.01
2019-03-26T07:02:15.029Z,6.17
2019-03-26T07:03:14.945Z,6.20
2019-03-26T07:04:14.744Z,6.11
2019-03-26T07:05:14.757Z,6.11
2019-03-26T07:06:14.722Z,6.05
2019-03-26T07:07:14.952Z,6.19
2019-03-26T07:08:14.717Z,6.19
2019-03-26T07:09:15.239Z,6.31
2019-03-26T07:10:14.690Z,6.39
2019-03-26T07:11:14.698Z,6.54
2019-03-26T07:12:14.792Z,6.52
2019-03-26T07:13:15.093Z,6.52
2019-03-26T07:14:14.657Z,6.49
2019-03-26T07:15:14.622Z,6.41
2019-03-26T07:16:14.735Z,6.30
2019-03-26T07:17:14.600Z,6.36
2019-03-26T07:18:14.604Z,6.30
2019-03-26T07:19:14.709Z,6.31
2019-03-26T07:20:14.620Z,6.31
2019-03-26T07:21:14.557Z,6.27
2019-03-26T07:22:14.693Z,6.31
2019-03-26T07:23:14.571Z,6.28
2019-03-26T07:24:14.615Z,6.24
2019-03-26T07:25:14.711Z,6.14
2019-03-26T07:26:14.662Z,6.17
2019-03-26T07:27:14.681Z,6.19
2019-03-26T07:28:14.499Z,6.24
2019-03-26T07:29:14.488Z,6.17
2019-03-26T07:30:17.872Z,6.14
2019-03-26T07:31:14.472Z,6.22
2019-03-26T07:32:14.502Z,6.19
2019-03-26T07:33:14.642Z,6.19
2019-03-26T07:34:14.430Z,6.14
2019-03-26T07:35:14.415Z,6.36
2019-03-26T07:36:14.398Z,6.63
2019-03-26T07:37:14.418Z,6.85
2019-03-26T07:38:14.607Z,8.38
2019-03-26T07:39:14.382Z,11.30
2019-03-26T07:40:14.353Z,14.25
2019-03-26T07:41:14.468Z,15.51
2019-03-26T07:42:14.356Z,17.20
2019-03-26T07:43:14.385Z,18.49
2019-03-26T07:44:14.509Z,19.45
2019-03-26T07:45:14.311Z,19.82
2019-03-26T07:46:17.483Z,20.28
2019-03-26T07:47:14.293Z,20.74
2019-03-26T07:48:14.280Z,20.70
2019-03-26T07:49:14.270Z,21.40
2019-03-26T07:50:14.613Z,21.64
2019-03-26T07:51:16.097Z,21.50
2019-03-26T07:52:15.631Z,21.22
2019-03-26T07:53:14.209Z,21.83
2019-03-26T07:54:14.263Z,22.53
2019-03-26T07:55:14.214Z,21.03
2019-03-26T07:56:15.108Z,19.85
2019-03-26T07:57:14.190Z,18.65
2019-03-26T07:58:14.266Z,17.15
2019-03-26T07:59:14.535Z,17.54
2019-03-26T08:00:14.157Z,16.20
2019-03-26T08:01:14.156Z,14.65
2019-03-26T08:02:14.122Z,13.35
2019-03-26T08:03:15.824Z,12.50
2019-03-26T08:04:14.100Z,11.94
2019-03-26T08:05:14.094Z,11.11
2019-03-26T08:06:14.071Z,10.49
2019-03-26T08:07:14.393Z,10.44
2019-03-26T08:08:14.054Z,10.71
2019-03-26T08:09:14.739Z,12.45
2019-03-26T08:10:14.030Z,13.65
2019-03-26T08:11:14.150Z,13.23
2019-03-26T08:12:15.685Z,14.73
2019-03-26T08:13:14.189Z,16.43
2019-03-26T08:14:14.044Z,15.61
2019-03-26T08:15:14.580Z,14.92
2019-03-26T08:16:13.995Z,14.32
2019-03-26T08:17:13.979Z,13.79
2019-03-26T08:18:13.963Z,14.17
2019-03-26T08:19:13.942Z,15.54
2019-03-26T08:20:13.931Z,16.60
2019-03-26T08:21:14.183Z,17.68
2019-03-26T08:22:13.912Z,16.42
2019-03-26T08:23:14.059Z,15.03
2019-03-26T08:24:13.905Z,15.35
2019-03-26T08:25:13.916Z,16.87
2019-03-26T08:26:14.484Z,18.35
2019-03-26T08:27:13.879Z,18.05
2019-03-26T08:28:13.927Z,16.87
2019-03-26T08:29:13.925Z,15.80
2019-03-26T08:30:14.276Z,15.79
2019-03-26T08:31:14.136Z,16.24
2019-03-26T08:32:14.156Z,15.58
2019-03-26T08:33:14.562Z,15.51
2019-03-26T08:34:14.155Z,14.88
2019-03-26T08:35:13.874Z,15.79
2019-03-26T08:36:14.718Z,16.16
2019-03-26T08:37:13.718Z,16.33
2019-03-26T08:38:13.743Z,17.14
2019-03-26T08:39:13.702Z,17.63
2019-03-26T08:40:13.699Z,16.86
2019-03-26T08:41:13.678Z,18.96
2019-03-26T08:42:18.028Z,19.22
2019-03-26T08:43:13.675Z,20.32
2019-03-26T08:44:13.653Z,21.64
2019-03-26T08:45:13.692Z,19.88
2019-03-26T08:46:13.622Z,17.85
2019-03-26T08:47:13.911Z,16.64
2019-03-26T08:48:14.253Z,15.27
2019-03-26T08:49:14.275Z,14.28
2019-03-26T08:50:13.593Z,13.46
2019-03-26T08:51:13.569Z,12.76
2019-03-26T08:52:13.561Z,12.02
2019-03-26T08:53:13.657Z,11.57
2019-03-26T08:54:13.548Z,11.08
2019-03-26T08:55:13.564Z,10.63
2019-03-26T08:56:13.513Z,10.40
2019-03-26T08:57:13.554Z,10.19
2019-03-26T08:58:13.688Z,10.26
2019-03-26T08:59:14.926Z,10.71
2019-03-26T09:00:13.469Z,11.11
2019-03-26T09:01:13.547Z,11.62
2019-03-26T09:02:13.577Z,11.86
2019-03-26T09:03:13.445Z,11.87
2019-03-26T09:04:13.725Z,12.10
2019-03-26T09:05:13.443Z,12.18
2019-03-26T09:06:13.498Z,12.12
2019-03-26T09:07:13.418Z,12.09
2019-03-26T09:08:24.739Z,12.35
2019-03-26T09:09:14.672Z,11.97
2019-03-26T09:10:13.365Z,11.68
2019-03-26T09:11:13.366Z,11.62
2019-03-26T09:12:13.391Z,11.54
2019-03-26T09:13:13.332Z,11.44
2019-03-26T09:14:13.492Z,11.40
2019-03-26T09:15:14.512Z,11.14
2019-03-26T09:16:13.306Z,11.07
2019-03-26T09:17:13.319Z,11.14
2019-03-26T09:18:13.290Z,11.15
2019-03-26T09:19:13.366Z,11.29
2019-03-26T09:20:13.774Z,11.70
2019-03-26T09:21:13.391Z,13.30
2019-03-26T09:22:13.240Z,15.24
2019-03-26T09:23:15.208Z,14.54
2019-03-26T09:24:13.588Z,13.59
2019-03-26T09:25:13.598Z,12.93
2019-03-26T09:26:13.211Z,12.75
2019-03-26T09:27:13.184Z,12.58
2019-03-26T09:28:13.170Z,12.24
2019-03-26T09:29:13.422Z,12.43
2019-03-26T09:30:13.152Z,12.43
2019-03-26T09:31:13.265Z,12.25
2019-03-26T09:32:13.118Z,11.88
2019-03-26T09:33:13.255Z,11.78
2019-03-26T09:34:13.100Z,13.04
2019-03-26T09:35:13.094Z,12.75
2019-03-26T09:36:13.181Z,12.83
2019-03-26T09:37:13.213Z,13.04
2019-03-26T09:38:13.080Z,13.57
2019-03-26T09:39:13.059Z,13.92
2019-03-26T09:40:13.049Z,13.85
2019-03-26T09:41:13.034Z,13.68
2019-03-26T09:42:13.011Z,13.50
2019-03-26T09:43:13.183Z,12.94
2019-03-26T09:44:14.164Z,12.35
2019-03-26T09:45:13.222Z,11.72
2019-03-26T09:46:12.983Z,11.43
2019-03-26T09:47:16.462Z,11.04
2019-03-26T09:48:12.950Z,11.07
2019-03-26T09:49:12.929Z,11.22
2019-03-26T09:50:12.934Z,11.26
2019-03-26T09:51:13.160Z,11.23
2019-03-26T09:52:12.910Z,11.05
2019-03-26T09:53:13.057Z,11.15
2019-03-26T09:54:12.900Z,10.97
2019-03-26T09:55:12.909Z,11.00
2019-03-26T09:56:13.078Z,11.10
2019-03-26T09:57:13.289Z,11.14
2019-03-26T09:58:13.080Z,11.14
2019-03-26T09:59:12.827Z,11.08
2019-03-26T10:00:12.820Z,11.05
2019-03-26T10:01:12.839Z,10.84
2019-03-26T10:02:12.802Z,10.44
2019-03-26T10:03:13.179Z,10.23
2019-03-26T10:04:12.787Z,10.15
2019-03-26T10:05:13.030Z,10.51
2019-03-26T10:06:22.775Z,11.60
2019-03-26T10:07:21.400Z,11.68
2019-03-26T10:08:17.677Z,11.69
2019-03-26T10:09:13.296Z,11.65
2019-03-26T10:10:12.854Z,11.43
2019-03-26T10:11:12.693Z,11.57
2019-03-26T10:12:13.173Z,11.65
2019-03-26T10:13:12.675Z,11.91
2019-03-26T10:14:12.682Z,11.84
2019-03-26T10:15:12.657Z,11.69
2019-03-26T10:16:13.491Z,11.35
2019-03-26T10:17:12.715Z,11.10
2019-03-26T10:18:13.143Z,10.69
2019-03-26T10:19:12.613Z,10.46
2019-03-26T10:20:12.604Z,10.42
2019-03-26T10:21:12.587Z,10.34
2019-03-26T10:22:12.582Z,10.25
2019-03-26T10:23:12.563Z,10.07
2019-03-26T10:24:12.697Z,9.80
2019-03-26T10:25:12.629Z,9.72
2019-03-26T10:26:13.109Z,9.64
2019-03-26T10:27:12.517Z,9.36
2019-03-26T10:28:12.571Z,9.31
2019-03-26T10:29:28.919Z,9.29
2019-03-26T10:30:14.239Z,9.26
2019-03-26T10:31:12.480Z,9.22
2019-03-26T10:32:12.475Z,9.29
2019-03-26T10:33:12.448Z,9.31
2019-03-26T10:34:12.440Z,9.31
2019-03-26T10:35:12.581Z,9.36
2019-03-26T10:36:12.418Z,9.48
2019-03-26T10:37:12.415Z,9.64
2019-03-26T10:38:12.407Z,9.92
2019-03-26T10:39:12.389Z,9.92
2019-03-26T10:40:12.627Z,10.02
2019-03-26T10:41:12.365Z,10.07
2019-03-26T10:42:12.384Z,9.98
2019-03-26T10:43:12.350Z,9.86
2019-03-26T10:44:12.352Z,9.77
2019-03-26T10:45:12.317Z,9.77
2019-03-26T10:46:12.686Z,9.77
2019-03-26T10:47:12.308Z,9.76
2019-03-26T10:48:12.288Z,9.65
2019-03-26T10:49:12.301Z,9.62
2019-03-26T10:50:12.914Z,9.69
2019-03-26T10:51:12.487Z,9.72
2019-03-26T10:52:13.382Z,9.74
2019-03-26T10:53:12.252Z,9.69
2019-03-26T10:54:12.230Z,9.68
2019-03-26T10:55:14.293Z,9.62
2019-03-26T10:56:12.248Z,9.61
2019-03-26T10:57:12.248Z,9.58
2019-03-26T10:58:12.447Z,9.61
2019-03-26T10:59:12.292Z,9.56
2019-03-26T11:00:12.363Z,9.40
2019-03-26T11:01:12.173Z,9.61
2019-03-26T11:02:12.139Z,9.73
2019-03-26T11:03:12.407Z,9.76
2019-03-26T11:04:12.112Z,10.23
2019-03-26T11:05:12.100Z,10.68
2019-03-26T11:06:12.103Z,11.25
2019-03-26T11:07:12.214Z,11.54
2019-03-26T11:08:12.061Z,11.68
2019-03-26T11:09:23.092Z,11.91
2019-03-26T11:10:13.295Z,12.02
2019-03-26T11:11:12.045Z,11.81
2019-03-26T11:12:12.131Z,11.78
2019-03-26T11:13:12.024Z,11.95
2019-03-26T11:14:12.209Z,12.78
2019-03-26T11:15:11.983Z,12.86
2019-03-26T11:16:14.070Z,12.76
2019-03-26T11:17:11.972Z,12.79
2019-03-26T11:18:12.022Z,13.47
2019-03-26T11:19:12.041Z,13.47
2019-03-26T11:20:11.937Z,13.33
2019-03-26T11:21:12.150Z,12.57
2019-03-26T11:22:11.909Z,12.18
2019-03-26T11:23:11.904Z,11.70
2019-03-26T11:24:12.057Z,11.37
2019-03-26T11:25:12.365Z,11.14
2019-03-26T11:26:11.911Z,11.05
2019-03-26T11:27:12.225Z,11.08
2019-03-26T11:28:12.259Z,10.84
2019-03-26T11:29:11.863Z,10.57
2019-03-26T11:30:11.965Z,10.42
2019-03-26T11:31:12.101Z,10.37
2019-03-26T11:32:11.893Z,10.37
2019-03-26T11:33:12.139Z,10.31
2019-03-26T11:34:12.506Z,10.22
2019-03-26T11:35:12.160Z,10.17
2019-03-26T11:36:11.877Z,10.20
2019-03-26T11:37:16.678Z,10.17
2019-03-26T11:38:11.732Z,10.19
2019-03-26T11:39:11.775Z,10.10
2019-03-26T11:40:12.318Z,9.94
2019-03-26T11:41:12.724Z,9.69
2019-03-26T11:42:11.706Z,9.64
2019-03-26T11:43:11.721Z,9.50
2019-03-26T11:44:12.174Z,9.55
2019-03-26T11:45:11.674Z,9.34
2019-03-26T11:46:11.675Z,9.25
2019-03-26T11:47:11.640Z,9.19
2019-03-26T11:48:11.709Z,9.21
2019-03-26T11:49:11.617Z,9.22
2019-03-26T11:50:12.085Z,9.19
2019-03-26T11:51:12.023Z,9.23
2019-03-26T11:52:11.701Z,9.34
2019-03-26T11:53:11.630Z,9.29
2019-03-26T11:54:11.564Z,9.26
2019-03-26T11:55:11.549Z,9.26
2019-03-26T11:56:16.189Z,9.16
2019-03-26T11:57:11.542Z,9.00
2019-03-26T11:58:11.673Z,9.04
2019-03-26T11:59:11.504Z,8.94
2019-03-26T12:00:11.484Z,8.84
2019-03-26T12:01:11.481Z,8.67
2019-03-26T12:02:11.677Z,8.67
2019-03-26T12:03:11.734Z,8.51
2019-03-26T12:04:11.443Z,8.45
2019-03-26T12:05:11.608Z,8.53
2019-03-26T12:06:11.546Z,8.56
2019-03-26T12:07:11.437Z,8.71
2019-03-26T12:08:11.522Z,8.64
2019-03-26T12:09:11.425Z,8.81
2019-03-26T12:10:11.391Z,8.82
2019-03-26T12:11:11.372Z,9.00
2019-03-26T12:12:11.354Z,9.23
2019-03-26T12:13:12.768Z,9.77
2019-03-26T12:14:11.346Z,10.64
2019-03-26T12:15:11.354Z,10.71
2019-03-26T12:16:11.310Z,10.54
2019-03-26T12:17:14.686Z,10.37
2019-03-26T12:18:11.649Z,10.33
2019-03-26T12:19:11.285Z,10.10
2019-03-26T12:20:11.310Z,9.91
2019-03-26T12:21:11.253Z,9.77
2019-03-26T12:22:11.396Z,9.73
2019-03-26T12:23:11.231Z,9.50
2019-03-26T12:24:11.921Z,9.28
2019-03-26T12:25:11.218Z,9.36
2019-03-26T12:26:11.222Z,9.22
2019-03-26T12:27:13.408Z,8.94
2019-03-26T12:28:11.398Z,8.81
2019-03-26T12:29:11.180Z,8.66
2019-03-26T12:30:11.322Z,8.67
2019-03-26T12:31:11.156Z,8.44
2019-03-26T12:32:11.138Z,8.53
2019-03-26T12:33:11.126Z,8.79
2019-03-26T12:34:11.116Z,8.92
2019-03-26T12:35:11.261Z,8.82
2019-03-26T12:36:11.112Z,8.69
2019-03-26T12:37:11.137Z,8.55
2019-03-26T12:38:11.115Z,8.30
2019-03-26T12:39:11.451Z,8.48
2019-03-26T12:40:11.045Z,8.30
2019-03-26T12:41:11.522Z,8.46
2019-03-26T12:42:11.031Z,8.67
2019-03-26T12:43:11.019Z,9.74
2019-03-26T12:44:10.997Z,10.42
2019-03-26T12:45:17.351Z,11.60
2019-03-26T12:46:11.100Z,13.30
2019-03-26T12:47:10.983Z,13.74
2019-03-26T12:48:11.803Z,13.95
2019-03-26T12:49:11.130Z,15.19
2019-03-26T12:50:10.933Z,16.08
2019-03-26T12:51:11.170Z,15.44
2019-03-26T12:52:10.913Z,14.81
2019-03-26T12:53:12.720Z,14.30
2019-03-26T12:54:11.742Z,14.10
2019-03-26T12:55:10.917Z,13.74
2019-03-26T12:56:10.866Z,13.99
2019-03-26T12:57:13.859Z,15.07
2019-03-26T12:58:10.928Z,15.15
2019-03-26T12:59:11.084Z,15.27
2019-03-26T13:00:10.832Z,14.62
2019-03-26T13:01:10.819Z,13.83
2019-03-26T13:02:11.312Z,13.08
2019-03-26T13:03:10.794Z,12.62
2019-03-26T13:04:13.338Z,12.24
2019-03-26T13:05:10.787Z,11.77
2019-03-26T13:06:10.765Z,11.30
2019-03-26T13:07:11.108Z,11.12
2019-03-26T13:08:10.752Z,11.00
2019-03-26T13:09:11.116Z,10.99
2019-03-26T13:10:14.095Z,11.05